Time;durP1;ratioP1;P1;durP2;ratioP2;P2;SDS_P1;SDS_P2;PMS_P1;PMS_P2;Temp;Humidity;BMP_temperature;BMP_pressure;BME280_temperature;BME280_humidity;BME280_pressure;Samples;Min_cycle;Max_cycle;Signal;HPM_P1;HPM_P2
2023/10/27 00:00:07;;;;;;;1999.90;999.90;;;;;;;;;;5063212;28;20055;-85
2023/10/27 00:02:36;;;;;;;1999.90;999.90;;;;;;;;;;5065292;28;20131;-84
2023/10/27 00:05:03;;;;;;;1999.90;999.90;;;;;;;;;;5065468;28;20052;-84
2023/10/27 00:07:29;;;;;;;1999.90;999.90;;;;;;;;;;5065619;28;20501;-84
2023/10/27 00:09:56;;;;;;;1999.90;999.90;;;;;;;;;;5061692;28;20048;-85
2023/10/27 00:12:24;;;;;;;1999.90;999.90;;;;;;;;;;5061739;28;20049;-84
2023/10/27 00:14:50;;;;;;;1999.90;999.90;;;;;;;;;;5058506;28;20048;-84
2023/10/27 00:17:17;;;;;;;1999.90;999.90;;;;;;;;;;5065077;28;20132;-87
2023/10/27 00:19:43;;;;;;;1999.90;999.90;;;;;;;;;;5062387;28;20049;-85
2023/10/27 00:22:10;;;;;;;1999.90;999.90;;;;;;;;;;5061003;28;20045;-83
2023/10/27 00:24:36;;;;;;;1999.90;999.90;;;;;;;;;;5055245;28;20041;-85
2023/10/27 00:27:03;;;;;;;1999.90;999.90;;;;;;;;;;5061351;28;20420;-85
2023/10/27 00:29:31;;;;;;;1999.90;999.90;;;;;;;;;;5059331;28;20057;-85
2023/10/27 00:31:58;;;;;;;1999.90;999.90;;;;;;;;;;5063546;28;20049;-85
2023/10/27 00:34:24;;;;;;;1999.90;999.90;;;;;;;;;;5062969;28;20041;-85
2023/10/27 00:36:51;;;;;;;1999.90;999.90;;;;;;;;;;5059391;28;20067;-85
2023/10/27 00:39:17;;;;;;;1999.90;999.90;;;;;;;;;;5061981;28;20047;-84
2023/10/27 00:41:44;;;;;;;1999.90;999.90;;;;;;;;;;5061129;28;20151;-85
2023/10/27 00:44:10;;;;;;;1999.90;999.90;;;;;;;;;;5061819;28;20050;-84
2023/10/27 00:46:39;;;;;;;1999.90;999.90;;;;;;;;;;5061426;28;20405;-85
2023/10/27 00:49:06;;;;;;;1999.90;999.90;;;;;;;;;;5062840;28;20179;-86
2023/10/27 00:51:32;;;;;;;1999.90;999.90;;;;;;;;;;5062458;28;20041;-86
2023/10/27 00:53:59;;;;;;;1999.90;999.90;;;;;;;;;;5059785;28;20055;-88
2023/10/27 00:56:26;;;;;;;1999.90;999.90;;;;;;;;;;5066989;28;20040;-87
2023/10/27 00:58:53;;;;;;;1999.90;999.90;;;;;;;;;;5058805;28;20049;-86
2023/10/27 01:01:20;;;;;;;1999.90;999.90;;;;;;;;;;5066212;28;20052;-85
2023/10/27 01:03:48;;;;;;;1999.90;999.90;;;;;;;;;;5061987;28;20044;-86
2023/10/27 01:06:14;;;;;;;1999.90;999.90;;;;;;;;;;5057937;28;20041;-87
2023/10/27 01:08:41;;;;;;;1999.90;999.90;;;;;;;;;;5065692;28;20057;-85
2023/10/27 01:11:08;;;;;;;1999.90;999.90;;;;;;;;;;5062314;28;20049;-86
2023/10/27 01:13:34;;;;;;;1999.90;999.90;;;;;;;;;;5061901;28;20049;-85
2023/10/27 01:16:01;;;;;;;1999.90;999.90;;;;;;;;;;5063152;28;20363;-87
2023/10/27 01:18:28;;;;;;;1999.90;999.90;;;;;;;;;;5057556;28;20044;-85
2023/10/27 01:20:55;;;;;;;1999.90;999.90;;;;;;;;;;5062845;28;20055;-87
2023/10/27 01:23:23;;;;;;;1999.90;999.90;;;;;;;;;;5059540;28;20037;-87
2023/10/27 01:25:50;;;;;;;1999.90;999.90;;;;;;;;;;5056595;28;20064;-85
2023/10/27 01:28:16;;;;;;;1999.90;999.90;;;;;;;;;;5058958;28;20378;-85
2023/10/27 01:30:43;;;;;;;1999.90;999.90;;;;;;;;;;5062466;28;20051;-85
2023/10/27 01:33:09;;;;;;;1999.90;999.90;;;;;;;;;;5061691;28;20048;-87
2023/10/27 01:35:36;;;;;;;1999.90;999.90;;;;;;;;;;5060737;28;20507;-86
2023/10/27 01:38:03;;;;;;;1999.90;999.90;;;;;;;;;;5060027;28;20079;-88
2023/10/27 01:40:31;;;;;;;1999.90;999.90;;;;;;;;;;5062012;28;20057;-86
2023/10/27 01:42:57;;;;;;;1999.90;999.90;;;;;;;;;;5058538;28;20057;-86
2023/10/27 01:45:24;;;;;;;1999.90;999.90;;;;;;;;;;5053379;28;20059;-86
2023/10/27 01:47:50;;;;;;;1999.90;999.90;;;;;;;;;;5062764;28;20048;-86
2023/10/27 01:50:17;;;;;;;1999.90;999.90;;;;;;;;;;5061370;28;20045;-86
2023/10/27 01:52:43;;;;;;;1999.90;999.90;;;;;;;;;;5061312;28;20044;-88
2023/10/27 01:55:10;;;;;;;1999.90;999.90;;;;;;;;;;5059453;28;20052;-85
2023/10/27 01:57:38;;;;;;;1999.90;999.90;;;;;;;;;;5061378;28;20044;-87
2023/10/27 02:00:07;;;;;;;1999.90;999.90;;;;;;;;;;5061162;28;20053;-86
2023/10/27 02:02:34;;;;;;;1999.90;999.90;;;;;;;;;;5059717;28;20576;-88
2023/10/27 02:05:02;;;;;;;1999.90;999.90;;;;;;;;;;5064645;28;20048;-85
2023/10/27 02:07:29;;;;;;;1999.90;999.90;;;;;;;;;;5059721;28;20140;-87
2023/10/27 02:09:59;;;;;;;1999.90;999.90;;;;;;;;;;5059813;28;20048;-86
2023/10/27 02:12:25;;;;;;;1999.90;999.90;;;;;;;;;;5061810;28;20057;-88
2023/10/27 02:14:53;;;;;;;1999.90;999.90;;;;;;;;;;5062513;28;20044;-88
2023/10/27 02:17:20;;;;;;;1999.90;999.90;;;;;;;;;;5062583;28;20052;-85
2023/10/27 02:19:47;;;;;;;1999.90;999.90;;;;;;;;;;5062770;28;20131;-87
2023/10/27 02:22:13;;;;;;;1999.90;999.90;;;;;;;;;;5061115;28;20484;-86
2023/10/27 02:24:40;;;;;;;1999.90;999.90;;;;;;;;;;5059280;28;20045;-85
2023/10/27 02:27:07;;;;;;;1999.90;999.90;;;;;;;;;;5059263;28;20041;-85
2023/10/27 02:29:34;;;;;;;1999.90;999.90;;;;;;;;;;5059650;28;20060;-87
2023/10/27 02:32:02;;;;;;;1999.90;999.90;;;;;;;;;;5058806;28;20056;-86
2023/10/27 02:34:28;;;;;;;1999.90;999.90;;;;;;;;;;5057352;28;20072;-84
2023/10/27 02:36:55;;;;;;;1999.90;999.90;;;;;;;;;;5064099;28;20044;-86
2023/10/27 02:39:21;;;;;;;1999.90;999.90;;;;;;;;;;5059013;28;20502;-85
2023/10/27 02:41:48;;;;;;;1999.90;999.90;;;;;;;;;;5057711;28;20159;-85
2023/10/27 02:44:14;;;;;;;1999.90;999.90;;;;;;;;;;5064331;28;20048;-85
2023/10/27 02:46:41;;;;;;;1999.90;999.90;;;;;;;;;;5056491;28;20041;-84
2023/10/27 02:49:09;;;;;;;1999.90;999.90;;;;;;;;;;5061277;28;20049;-85
2023/10/27 02:51:35;;;;;;;1999.90;999.90;;;;;;;;;;5058117;28;20037;-84
2023/10/27 02:54:03;;;;;;;1999.90;999.90;;;;;;;;;;5061416;28;20071;-86
2023/10/27 02:56:30;;;;;;;1999.90;999.90;;;;;;;;;;5061157;28;20056;-85
2023/10/27 02:58:56;;;;;;;1999.90;999.90;;;;;;;;;;5060145;28;20052;-85
2023/10/27 03:01:23;;;;;;;1999.90;999.90;;;;;;;;;;5057004;28;20052;-86
2023/10/27 03:03:49;;;;;;;1999.90;999.90;;;;;;;;;;5057582;28;20060;-86
2023/10/27 03:06:17;;;;;;;1999.90;999.90;;;;;;;;;;5058746;28;20076;-85
2023/10/27 03:08:44;;;;;;;1999.90;999.90;;;;;;;;;;5059053;28;20048;-88
2023/10/27 03:11:10;;;;;;;1999.90;999.90;;;;;;;;;;5063089;28;20060;-85
2023/10/27 03:13:37;;;;;;;1999.90;999.90;;;;;;;;;;5060151;28;20048;-85
2023/10/27 03:16:04;;;;;;;1999.90;999.90;;;;;;;;;;5052218;28;20464;-88
2023/10/27 03:18:32;;;;;;;1999.90;999.90;;;;;;;;;;5058128;28;20048;-85
2023/10/27 03:20:59;;;;;;;1999.90;999.90;;;;;;;;;;5061034;28;20122;-86
2023/10/27 03:23:28;;;;;;;1999.90;999.90;;;;;;;;;;5058465;28;20076;-85
2023/10/27 03:25:55;;;;;;;1999.90;999.90;;;;;;;;;;5058061;28;20400;-88
2023/10/27 03:28:22;;;;;;;1999.90;999.90;;;;;;;;;;5059595;28;20053;-85
2023/10/27 03:30:49;;;;;;;1999.90;999.90;;;;;;;;;;5056334;28;20041;-86
2023/10/27 03:33:16;;;;;;;1999.90;999.90;;;;;;;;;;5056960;28;20113;-86
2023/10/27 03:35:43;;;;;;;1999.90;999.90;;;;;;;;;;5058571;28;20446;-86
2023/10/27 03:38:10;;;;;;;1999.90;999.90;;;;;;;;;;5059932;28;20123;-86
2023/10/27 03:40:38;;;;;;;1999.90;999.90;;;;;;;;;;5058303;28;20056;-87
2023/10/27 03:43:05;;;;;;;1999.90;999.90;;;;;;;;;;5057463;28;20064;-86
2023/10/27 03:45:31;;;;;;;1999.90;999.90;;;;;;;;;;5059133;28;20036;-86
2023/10/27 03:47:58;;;;;;;1999.90;999.90;;;;;;;;;;5061198;28;20491;-86
2023/10/27 03:50:24;;;;;;;1999.90;999.90;;;;;;;;;;5059618;28;20052;-87
2023/10/27 03:52:51;;;;;;;1999.90;999.90;;;;;;;;;;5056469;28;20061;-85
2023/10/27 03:55:17;;;;;;;1999.90;999.90;;;;;;;;;;5060577;28;20049;-87
2023/10/27 03:57:45;;;;;;;1999.90;999.90;;;;;;;;;;5064988;28;20122;-87
2023/10/27 04:00:13;;;;;;;1999.90;999.90;;;;;;;;;;5065702;28;20052;-85
2023/10/27 04:02:40;;;;;;;1999.90;999.90;;;;;;;;;;5067205;28;20113;-86
2023/10/27 04:05:07;;;;;;;1999.90;999.90;;;;;;;;;;5064480;28;20400;-86
2023/10/27 04:07:34;;;;;;;1999.90;999.90;;;;;;;;;;5068269;28;20167;-88
2023/10/27 04:10:00;;;;;;;1999.90;999.90;;;;;;;;;;5066825;28;20048;-86
2023/10/27 04:12:27;;;;;;;1999.90;999.90;;;;;;;;;;5062252;28;20049;-85
2023/10/27 04:14:55;;;;;;;1999.90;999.90;;;;;;;;;;5059465;28;20041;-86
2023/10/27 04:17:21;;;;;;;1999.90;999.90;;;;;;;;;;5062324;28;20056;-86
2023/10/27 04:19:48;;;;;;;1999.90;999.90;;;;;;;;;;5058242;28;20060;-86
2023/10/27 04:22:14;;;;;;;1999.90;999.90;;;;;;;;;;5057621;28;20512;-86
2023/10/27 04:24:41;;;;;;;1999.90;999.90;;;;;;;;;;5061395;28;20489;-86
2023/10/27 04:27:07;;;;;;;1999.90;999.90;;;;;;;;;;5061826;28;20060;-84
2023/10/27 04:29:34;;;;;;;1999.90;999.90;;;;;;;;;;5064508;28;20066;-87
2023/10/27 04:32:04;;;;;;;1999.90;999.90;;;;;;;;;;5063463;28;20048;-84
2023/10/27 04:34:30;;;;;;;1999.90;999.90;;;;;;;;;;5061475;28;20075;-85
2023/10/27 04:36:57;;;;;;;1999.90;999.90;;;;;;;;;;5064858;28;20052;-84
2023/10/27 04:39:23;;;;;;;1999.90;999.90;;;;;;;;;;5061950;28;20036;-84
2023/10/27 04:41:50;;;;;;;1999.90;999.90;;;;;;;;;;5062214;28;20140;-85
2023/10/27 04:44:22;;;;;;;1999.90;999.90;;;;;;;;;;5060530;28;20045;-87
2023/10/27 04:46:48;;;;;;;1999.90;999.90;;;;;;;;;;5062253;28;20049;-84
2023/10/27 04:49:16;;;;;;;1999.90;999.90;;;;;;;;;;5065678;28;20040;-84
2023/10/27 04:51:43;;;;;;;1999.90;999.90;;;;;;;;;;5062723;28;20488;-85
2023/10/27 04:54:09;;;;;;;1999.90;999.90;;;;;;;;;;5064087;28;20498;-85
2023/10/27 04:56:36;;;;;;;1999.90;999.90;;;;;;;;;;5058856;28;20477;-84
2023/10/27 04:59:03;;;;;;;1999.90;999.90;;;;;;;;;;5061982;28;20045;-86
2023/10/27 05:01:29;;;;;;;1999.90;999.90;;;;;;;;;;5061524;28;20122;-85
2023/10/27 05:03:56;;;;;;;1999.90;999.90;;;;;;;;;;5062796;28;20051;-83
2023/10/27 05:06:24;;;;;;;1999.90;999.90;;;;;;;;;;5060422;28;20079;-84
2023/10/27 05:08:51;;;;;;;1999.90;999.90;;;;;;;;;;5062581;28;20060;-85
2023/10/27 05:11:18;;;;;;;1999.90;999.90;;;;;;;;;;5062751;28;20055;-84
2023/10/27 05:13:45;;;;;;;1999.90;999.90;;;;;;;;;;5065985;28;20075;-88
2023/10/27 05:16:11;;;;;;;1999.90;999.90;;;;;;;;;;5062717;28;20040;-85
2023/10/27 05:18:38;;;;;;;1999.90;999.90;;;;;;;;;;5059226;28;20037;-84
2023/10/27 05:21:05;;;;;;;1999.90;999.90;;;;;;;;;;5061171;28;20401;-86
2023/10/27 05:23:33;;;;;;;1999.90;999.90;;;;;;;;;;5058856;28;20059;-87
2023/10/27 05:25:59;;;;;;;1999.90;999.90;;;;;;;;;;5062305;28;20286;-85
2023/10/27 05:28:26;;;;;;;1999.90;999.90;;;;;;;;;;5063594;28;20057;-86
2023/10/27 05:30:53;;;;;;;1999.90;999.90;;;;;;;;;;5059848;28;20045;-86
2023/10/27 05:33:20;;;;;;;1999.90;999.90;;;;;;;;;;5066803;28;20131;-85
2023/10/27 05:35:47;;;;;;;1999.90;999.90;;;;;;;;;;5060693;28;20057;-84
2023/10/27 05:38:14;;;;;;;1999.90;999.90;;;;;;;;;;5061435;28;20045;-85
2023/10/27 05:40:42;;;;;;;1999.90;999.90;;;;;;;;;;5065643;28;20098;-85
2023/10/27 05:43:08;;;;;;;1999.90;999.90;;;;;;;;;;5056945;28;20040;-86
2023/10/27 05:45:35;;;;;;;1999.90;999.90;;;;;;;;;;5059682;28;20468;-85
2023/10/27 05:48:02;;;;;;;1999.90;999.90;;;;;;;;;;5060846;28;20045;-85
2023/10/27 05:50:28;;;;;;;1999.90;999.90;;;;;;;;;;5061042;28;20041;-86
2023/10/27 05:52:55;;;;;;;1999.90;999.90;;;;;;;;;;5061603;28;20045;-84
2023/10/27 05:55:24;;;;;;;1999.90;999.90;;;;;;;;;;5055948;28;20071;-85
2023/10/27 05:57:52;;;;;;;1999.90;999.90;;;;;;;;;;5064111;28;20084;-87
2023/10/27 06:00:20;;;;;;;1999.90;999.90;;;;;;;;;;5057711;28;20052;-88
2023/10/27 06:02:48;;;;;;;1999.90;999.90;;;;;;;;;;5063445;28;20126;-85
2023/10/27 06:05:15;;;;;;;1999.90;999.90;;;;;;;;;;5061028;28;20152;-86
2023/10/27 06:07:41;;;;;;;1999.90;999.90;;;;;;;;;;5057442;28;20369;-85
2023/10/27 06:10:09;;;;;;;1999.90;999.90;;;;;;;;;;5061385;28;20057;-85
2023/10/27 06:12:36;;;;;;;1999.90;999.90;;;;;;;;;;5061358;28;20047;-86
2023/10/27 06:15:04;;;;;;;1999.90;999.90;;;;;;;;;;5066721;28;20045;-83
2023/10/27 06:17:32;;;;;;;1999.90;999.90;;;;;;;;;;5066450;28;20063;-85
2023/10/27 06:20:01;;;;;;;1999.90;999.90;;;;;;;;;;5057670;28;20060;-86
2023/10/27 06:22:27;;;;;;;1999.90;999.90;;;;;;;;;;5061475;28;20052;-84
2023/10/27 06:24:54;;;;;;;1999.90;999.90;;;;;;;;;;5065561;28;20064;-84
2023/10/27 06:27:20;;;;;;;1999.90;999.90;;;;;;;;;;5064643;28;20522;-84
2023/10/27 06:29:47;;;;;;;1999.90;999.90;;;;;;;;;;5062171;28;20048;-84
2023/10/27 06:32:15;;;;;;;1999.90;999.90;;;;;;;;;;5060518;28;20414;-81
2023/10/27 06:34:42;;;;;;;1999.90;999.90;;;;;;;;;;5060679;28;20049;-80
2023/10/27 06:37:09;;;;;;;1999.90;999.90;;;;;;;;;;5062776;28;20053;-81
2023/10/27 06:39:35;;;;;;;1999.90;999.90;;;;;;;;;;5060326;28;20037;-81
2023/10/27 06:42:02;;;;;;;1999.90;999.90;;;;;;;;;;5061368;28;20056;-81
2023/10/27 06:44:28;;;;;;;1999.90;999.90;;;;;;;;;;5060776;28;20044;-80
2023/10/27 06:46:56;;;;;;;1999.90;999.90;;;;;;;;;;5059421;28;20091;-82
2023/10/27 06:49:25;;;;;;;1999.90;999.90;;;;;;;;;;5059293;28;20044;-82
2023/10/27 06:51:51;;;;;;;1999.90;999.90;;;;;;;;;;5074163;28;20048;-82
2023/10/27 06:54:18;;;;;;;1999.90;999.90;;;;;;;;;;5062782;28;20424;-82
2023/10/27 06:56:44;;;;;;;1999.90;999.90;;;;;;;;;;5061355;28;20044;-83
2023/10/27 06:59:11;;;;;;;1999.90;999.90;;;;;;;;;;5060996;28;20070;-81
2023/10/27 07:01:37;;;;;;;1999.90;999.90;;;;;;;;;;5060907;28;20041;-83
2023/10/27 07:04:05;;;;;;;1999.90;999.90;;;;;;;;;;5064260;28;20049;-84
2023/10/27 07:06:32;;;;;;;1999.90;999.90;;;;;;;;;;5065083;28;20052;-81
2023/10/27 07:08:59;;;;;;;1999.90;999.90;;;;;;;;;;5057204;28;20064;-81
2023/10/27 07:11:25;;;;;;;1999.90;999.90;;;;;;;;;;5061645;28;20516;-81
2023/10/27 07:13:52;;;;;;;1999.90;999.90;;;;;;;;;;5063565;28;20048;-81
2023/10/27 07:16:18;;;;;;;1999.90;999.90;;;;;;;;;;5060862;28;20045;-81
2023/10/27 07:18:45;;;;;;;1999.90;999.90;;;;;;;;;;5060080;28;20519;-81
2023/10/27 07:21:12;;;;;;;1999.90;999.90;;;;;;;;;;5059953;28;20056;-81
2023/10/27 07:23:39;;;;;;;1999.90;999.90;;;;;;;;;;5057161;28;20051;-81
2023/10/27 07:26:13;;;;;;;1999.90;999.90;;;;;;;;;;5066223;28;20041;-83
2023/10/27 07:28:41;;;;;;;1999.90;999.90;;;;;;;;;;5057970;28;20049;-80
2023/10/27 07:31:08;;;;;;;1999.90;999.90;;;;;;;;;;5062525;28;20045;-81
2023/10/27 07:33:35;;;;;;;1999.90;999.90;;;;;;;;;;5065674;28;20050;-81
2023/10/27 07:36:02;;;;;;;1999.90;999.90;;;;;;;;;;5068680;28;20055;-80
2023/10/27 07:38:30;;;;;;;1999.90;999.90;;;;;;;;;;5059564;28;20075;-80
2023/10/27 07:40:58;;;;;;;1999.90;999.90;;;;;;;;;;5060699;28;20096;-80
2023/10/27 07:43:25;;;;;;;1999.90;999.90;;;;;;;;;;5061118;28;20052;-79
2023/10/27 07:45:54;;;;;;;1999.90;999.90;;;;;;;;;;5065749;28;20051;-81
2023/10/27 07:48:20;;;;;;;1999.90;999.90;;;;;;;;;;5056548;28;20056;-81
2023/10/27 07:50:47;;;;;;;1999.90;999.90;;;;;;;;;;5057263;28;21096;-81
2023/10/27 07:53:13;;;;;;;1999.90;999.90;;;;;;;;;;5064063;28;20374;-80
2023/10/27 07:55:40;;;;;;;1999.90;999.90;;;;;;;;;;5057583;28;20473;-81
2023/10/27 07:58:08;;;;;;;1999.90;999.90;;;;;;;;;;5058992;28;20218;-82
2023/10/27 08:00:35;;;;;;;1999.90;999.90;;;;;;;;;;5058119;28;20048;-81
2023/10/27 08:03:01;;;;;;;1999.90;999.90;;;;;;;;;;5061709;28;20072;-81
2023/10/27 08:05:29;;;;;;;1999.90;999.90;;;;;;;;;;5061740;28;20040;-81
2023/10/27 08:07:56;;;;;;;1999.90;999.90;;;;;;;;;;5070256;28;20048;-82
2023/10/27 08:10:24;;;;;;;1999.90;999.90;;;;;;;;;;5067986;28;20056;-81
2023/10/27 08:12:51;;;;;;;1999.90;999.90;;;;;;;;;;5062318;28;20106;-84
2023/10/27 08:15:18;;;;;;;1999.90;999.90;;;;;;;;;;5063850;28;20063;-82
2023/10/27 08:17:45;;;;;;;1999.90;999.90;;;;;;;;;;5067748;28;20056;-82
2023/10/27 08:20:12;;;;;;;1999.90;999.90;;;;;;;;;;5062725;28;20056;-81
2023/10/27 08:22:39;;;;;;;1999.90;999.90;;;;;;;;;;5062589;28;20554;-82
2023/10/27 08:25:05;;;;;;;1999.90;999.90;;;;;;;;;;5059696;28;20119;-80
2023/10/27 08:27:32;;;;;;;1999.90;999.90;;;;;;;;;;5062554;28;20045;-81
2023/10/27 08:29:59;;;;;;;1999.90;999.90;;;;;;;;;;5065062;28;20074;-80
2023/10/27 08:32:27;;;;;;;1999.90;999.90;;;;;;;;;;5062322;28;20048;-81
2023/10/27 08:34:53;;;;;;;1999.90;999.90;;;;;;;;;;5058623;28;20044;-81
2023/10/27 08:37:20;;;;;;;1999.90;999.90;;;;;;;;;;5062665;28;20045;-82
2023/10/27 08:39:47;;;;;;;1999.90;999.90;;;;;;;;;;5062524;28;20056;-82
2023/10/27 08:42:13;;;;;;;1999.90;999.90;;;;;;;;;;5061734;28;20052;-82
2023/10/27 08:44:41;;;;;;;1999.90;999.90;;;;;;;;;;5059861;28;20589;-80
2023/10/27 08:47:08;;;;;;;1999.90;999.90;;;;;;;;;;5058286;28;20040;-82
2023/10/27 08:49:36;;;;;;;1999.90;999.90;;;;;;;;;;5061344;28;20078;-81
2023/10/27 08:52:02;;;;;;;1999.90;999.90;;;;;;;;;;5061385;28;20490;-81
2023/10/27 08:54:29;;;;;;;1999.90;999.90;;;;;;;;;;5057755;28;20554;-83
2023/10/27 08:56:56;;;;;;;1999.90;999.90;;;;;;;;;;5057620;28;20126;-83
2023/10/27 08:59:24;;;;;;;1999.90;999.90;;;;;;;;;;5063546;28;20056;-81
2023/10/27 09:01:51;;;;;;;1999.90;999.90;;;;;;;;;;5058674;28;20501;-81
2023/10/27 09:04:19;;;;;;;1999.90;999.90;;;;;;;;;;5063142;28;20044;-81
2023/10/27 09:06:47;;;;;;;1999.90;999.90;;;;;;;;;;5060386;28;20133;-80
2023/10/27 09:09:14;;;;;;;1999.90;999.90;;;;;;;;;;5059835;28;20392;-81
2023/10/27 09:11:42;;;;;;;1999.90;999.90;;;;;;;;;;5058275;28;20048;-81
2023/10/27 09:14:19;;;;;;;1999.90;999.90;;;;;;;;;;5066171;28;20127;-79
2023/10/27 09:16:46;;;;;;;1999.90;999.90;;;;;;;;;;5058229;28;20128;-80
2023/10/27 09:19:20;;;;;;;1999.90;999.90;;;;;;;;;;5057388;28;20059;-80
2023/10/27 09:21:48;;;;;;;1999.90;999.90;;;;;;;;;;5060364;28;20095;-82
2023/10/27 09:24:22;;;;;;;1999.90;999.90;;;;;;;;;;5060723;28;20056;-81
2023/10/27 09:26:49;;;;;;;1999.90;999.90;;;;;;;;;;5062615;28;20044;-82
2023/10/27 09:29:16;;;;;;;1999.90;999.90;;;;;;;;;;5059812;28;20129;-81
2023/10/27 09:31:43;;;;;;;1999.90;999.90;;;;;;;;;;5057999;28;20060;-80
2023/10/27 09:34:17;;;;;;;1999.90;999.90;;;;;;;;;;5060940;28;20052;-82
2023/10/27 09:36:45;;;;;;;1999.90;999.90;;;;;;;;;;5061509;28;20636;-81
2023/10/27 09:39:16;;;;;;;1999.90;999.90;;;;;;;;;;5056530;28;20053;-81
2023/10/27 09:41:46;;;;;;;1999.90;999.90;;;;;;;;;;5059796;28;20405;-81
2023/10/27 09:44:15;;;;;;;1999.90;999.90;;;;;;;;;;5054765;28;20041;-80
2023/10/27 09:46:45;;;;;;;1999.90;999.90;;;;;;;;;;5059987;28;20045;-83
2023/10/27 09:49:13;;;;;;;1999.90;999.90;;;;;;;;;;5057810;28;20047;-81
2023/10/27 09:51:41;;;;;;;1999.90;999.90;;;;;;;;;;5059906;28;20072;-82
2023/10/27 09:54:08;;;;;;;1999.90;999.90;;;;;;;;;;5061241;28;20473;-80
2023/10/27 09:56:36;;;;;;;1999.90;999.90;;;;;;;;;;5057797;28;20045;-82
2023/10/27 09:59:04;;;;;;;1999.90;999.90;;;;;;;;;;5057205;28;20058;-82
2023/10/27 10:01:31;;;;;;;1999.90;999.90;;;;;;;;;;5059067;28;20110;-81
2023/10/27 10:03:58;;;;;;;1999.90;999.90;;;;;;;;;;5060462;28;20044;-81
2023/10/27 10:06:24;;;;;;;1999.90;999.90;;;;;;;;;;5060246;28;20500;-82
2023/10/27 10:09:06;;;;;;;1999.90;999.90;;;;;;;;;;5056868;28;20049;-82
2023/10/27 10:11:40;;;;;;;1999.90;999.90;;;;;;;;;;5059401;28;20052;-82
2023/10/27 10:14:07;;;;;;;1999.90;999.90;;;;;;;;;;5060853;28;20048;-82
2023/10/27 10:16:45;;;;;;;1999.90;999.90;;;;;;;;;;5060486;28;20041;-80
2023/10/27 10:19:11;;;;;;;1999.90;999.90;;;;;;;;;;5058782;28;20045;-81
2023/10/27 10:21:39;;;;;;;1999.90;999.90;;;;;;;;;;5056150;28;20051;-82
2023/10/27 10:24:09;;;;;;;1999.90;999.90;;;;;;;;;;5058445;28;20498;-80
2023/10/27 10:27:15;;;;;;;1999.90;999.90;;;;;;;;;;5060279;28;20507;-80
2023/10/27 10:29:43;;;;;;;1999.90;999.90;;;;;;;;;;5040273;28;20553;-81
2023/10/27 10:32:30;;;;;;;1999.90;999.90;;;;;;;;;;5039125;28;20057;-82
2023/10/27 10:35:26;;;;;;;1999.90;999.90;;;;;;;;;;5055055;28;20078;-81
2023/10/27 10:37:53;;;;;;;1999.90;999.90;;;;;;;;;;5059257;28;20139;-80
2023/10/27 10:40:23;;;;;;;1999.90;999.90;;;;;;;;;;5062340;28;20060;-81
2023/10/27 10:43:20;;;;;;;1999.90;999.90;;;;;;;;;;5059887;28;20044;-82
2023/10/27 10:45:49;;;;;;;1999.90;999.90;;;;;;;;;;5058810;28;20048;-81
2023/10/27 10:48:16;;;;;;;1999.90;999.90;;;;;;;;;;5058800;28;20047;-81
2023/10/27 10:50:43;;;;;;;1999.90;999.90;;;;;;;;;;5063445;28;20052;-82
2023/10/27 10:53:11;;;;;;;1999.90;999.90;;;;;;;;;;5059526;28;20087;-81
2023/10/27 10:55:38;;;;;;;1999.90;999.90;;;;;;;;;;5059235;28;20456;-83
2023/10/27 10:58:04;;;;;;;1999.90;999.90;;;;;;;;;;5059869;28;20048;-81
2023/10/27 11:00:35;;;;;;;1999.90;999.90;;;;;;;;;;5059670;28;20059;-81
2023/10/27 11:03:09;;;;;;;1999.90;999.90;;;;;;;;;;5062549;28;20440;-80
2023/10/27 11:05:35;;;;;;;1999.90;999.90;;;;;;;;;;5055294;28;20044;-82
2023/10/27 11:08:03;;;;;;;1999.90;999.90;;;;;;;;;;5061008;28;20048;-81
2023/10/27 11:10:29;;;;;;;1999.90;999.90;;;;;;;;;;5054221;28;20053;-82
2023/10/27 11:13:04;;;;;;;1999.90;999.90;;;;;;;;;;5056348;28;20045;-81
2023/10/27 11:15:49;;;;;;;1999.90;999.90;;;;;;;;;;5066009;28;20036;-79
2023/10/27 11:18:16;;;;;;;1999.90;999.90;;;;;;;;;;5059034;28;20055;-80
2023/10/27 11:20:43;;;;;;;1999.90;999.90;;;;;;;;;;5054925;28;20064;-81
2023/10/27 11:23:10;;;;;;;1999.90;999.90;;;;;;;;;;5059579;28;20045;-80
2023/10/27 11:25:37;;;;;;;1999.90;999.90;;;;;;;;;;5057625;28;20055;-80
2023/10/27 11:28:23;;;;;;;1999.90;999.90;;;;;;;;;;5061351;28;20049;-81
2023/10/27 11:31:02;;;;;;;1999.90;999.90;;;;;;;;;;5057024;28;20059;-81
2023/10/27 11:33:29;;;;;;;1999.90;999.90;;;;;;;;;;5059705;28;20052;-81
2023/10/27 11:35:56;;;;;;;1999.90;999.90;;;;;;;;;;5061262;28;20040;-81
2023/10/27 11:38:24;;;;;;;1999.90;999.90;;;;;;;;;;5063226;28;20076;-83
2023/10/27 11:40:51;;;;;;;1999.90;999.90;;;;;;;;;;5066347;28;20056;-80
2023/10/27 11:43:18;;;;;;;1999.90;999.90;;;;;;;;;;5060904;28;20489;-80
2023/10/27 11:45:46;;;;;;;1999.90;999.90;;;;;;;;;;5062793;28;20051;-82
2023/10/27 11:48:14;;;;;;;1999.90;999.90;;;;;;;;;;5062901;28;20114;-81
2023/10/27 11:50:40;;;;;;;1999.90;999.90;;;;;;;;;;5062096;28;20497;-80
2023/10/27 11:53:07;;;;;;;1999.90;999.90;;;;;;;;;;5059136;28;20048;-79
2023/10/27 11:55:33;;;;;;;1999.90;999.90;;;;;;;;;;5062406;28;20052;-79
2023/10/27 11:58:00;;;;;;;1999.90;999.90;;;;;;;;;;5062085;28;20048;-82
2023/10/27 12:00:27;;;;;;;1999.90;999.90;;;;;;;;;;5062827;28;20417;-80
2023/10/27 12:02:53;;;;;;;1999.90;999.90;;;;;;;;;;5063810;28;20059;-81
2023/10/27 12:05:21;;;;;;;1999.90;999.90;;;;;;;;;;5062668;28;20201;-82
2023/10/27 12:07:47;;;;;;;1999.90;999.90;;;;;;;;;;5063822;28;20068;-82
2023/10/27 12:10:14;;;;;;;1999.90;999.90;;;;;;;;;;5063087;28;20425;-82
2023/10/27 12:12:40;;;;;;;1999.90;999.90;;;;;;;;;;5059533;28;20037;-82
2023/10/27 12:15:08;;;;;;;1999.90;999.90;;;;;;;;;;5064450;28;20048;-81
2023/10/27 12:17:35;;;;;;;1999.90;999.90;;;;;;;;;;5061816;28;20044;-82
2023/10/27 12:20:01;;;;;;;1999.90;999.90;;;;;;;;;;5056054;28;20055;-83
2023/10/27 12:22:30;;;;;;;1999.90;999.90;;;;;;;;;;5064320;28;20049;-82
2023/10/27 12:24:56;;;;;;;1999.90;999.90;;;;;;;;;;5062425;28;20041;-80
2023/10/27 12:27:22;;;;;;;1999.90;999.90;;;;;;;;;;5066415;28;20045;-82
2023/10/27 12:29:49;;;;;;;1999.90;999.90;;;;;;;;;;5061626;28;20076;-81
2023/10/27 12:32:15;;;;;;;1999.90;999.90;;;;;;;;;;5060462;28;20049;-82
2023/10/27 12:34:43;;;;;;;1999.90;999.90;;;;;;;;;;5062743;28;20045;-82
2023/10/27 12:37:09;;;;;;;1999.90;999.90;;;;;;;;;;5059275;28;20107;-82
2023/10/27 12:39:38;;;;;;;1999.90;999.90;;;;;;;;;;5064161;28;20041;-81
2023/10/27 12:42:07;;;;;;;1999.90;999.90;;;;;;;;;;5058726;28;20064;-83
2023/10/27 12:44:35;;;;;;;1999.90;999.90;;;;;;;;;;5060996;28;20132;-80
2023/10/27 12:47:02;;;;;;;1999.90;999.90;;;;;;;;;;5059768;28;20048;-82
2023/10/27 12:49:28;;;;;;;1999.90;999.90;;;;;;;;;;5062934;28;20140;-81
2023/10/27 12:51:55;;;;;;;1999.90;999.90;;;;;;;;;;5065879;28;20052;-81
2023/10/27 12:54:22;;;;;;;1999.90;999.90;;;;;;;;;;5063745;28;20036;-81
2023/10/27 12:56:51;;;;;;;1999.90;999.90;;;;;;;;;;5061328;28;20051;-84
2023/10/27 12:59:18;;;;;;;1999.90;999.90;;;;;;;;;;5059827;28;20040;-83
2023/10/27 13:01:44;;;;;;;1999.90;999.90;;;;;;;;;;5060767;28;20041;-80
2023/10/27 13:04:11;;;;;;;1999.90;999.90;;;;;;;;;;5066417;28;20140;-80
2023/10/27 13:06:38;;;;;;;1999.90;999.90;;;;;;;;;;5062246;28;20413;-79
2023/10/27 13:09:05;;;;;;;1999.90;999.90;;;;;;;;;;5060610;28;20056;-81
2023/10/27 13:11:33;;;;;;;1999.90;999.90;;;;;;;;;;5059388;28;20074;-82
2023/10/27 13:14:01;;;;;;;1999.90;999.90;;;;;;;;;;5057962;28;20061;-79
2023/10/27 13:16:28;;;;;;;1999.90;999.90;;;;;;;;;;5066724;28;20049;-81
2023/10/27 13:18:54;;;;;;;1999.90;999.90;;;;;;;;;;5059352;28;20048;-81
2023/10/27 13:21:21;;;;;;;1999.90;999.90;;;;;;;;;;5060463;28;20067;-80
2023/10/27 13:23:48;;;;;;;1999.90;999.90;;;;;;;;;;5059900;28;20068;-82
2023/10/27 13:26:15;;;;;;;1999.90;999.90;;;;;;;;;;5059958;28;20113;-80
2023/10/27 13:28:43;;;;;;;1999.90;999.90;;;;;;;;;;5063229;28;20412;-81
2023/10/27 13:31:11;;;;;;;1999.90;999.90;;;;;;;;;;5063433;28;20390;-80
2023/10/27 13:33:37;;;;;;;1999.90;999.90;;;;;;;;;;5064363;28;20480;-79
2023/10/27 13:36:08;;;;;;;1999.90;999.90;;;;;;;;;;5060666;28;20332;-79
2023/10/27 13:38:35;;;;;;;1999.90;999.90;;;;;;;;;;5062208;28;20048;-80
2023/10/27 13:41:02;;;;;;;1999.90;999.90;;;;;;;;;;5064746;28;20059;-79
2023/10/27 13:43:29;;;;;;;1999.90;999.90;;;;;;;;;;5060904;28;20045;-81